ソルトレイクシティ の空港の天気 - METARとTAF

ソルト・レーク・シティ国際空港 ( KSLC / SLC ) - アメリカ ユタ州ソルトレイクシティ
飛行場実況気象(Metar)
観測時間07/22 11:54 MDT (07/22 17:54 UTC)
風向・風速北西 5m/s
視程10km以上
天気現象
全天の8割程度の雲 雲底高度 3350m
全天の8割程度の雲 雲底高度 5490m
気温27.8℃
湿度35%
気圧1017.4hPa
METARKSLC 221754Z 31009KT 10SM BKN110 BKN180 28/11 A3022 RMK AO2 SLP174 VIRGA 60000 T02780111 10278 20233 53014
過去の天気等 Google飛行場航空写真 Wunderground天気予報

過去48時間のMETAR

飛行場予報(TAF)
発表時間: 7/22 11:40 MDT (7/22 17:40 UTC)
予報対象時間: 22日12時 MDT ~ 23日18時 MDT
風向・風速西北西 3m/s
視程10km以上
全天の4割程度の雲 雲底高度 3350m
全天の8割程度の雲 雲底高度 4570m
22日16時 MDT から
風向・風速北北西 5m/s 瞬間風速 9m/s
視程10km以上
天気現象周辺でしゅう雨
全天の8割程度の雲 雲底高度 3050m
全天の8割程度の雲 雲底高度 4570m
22日19時 MDT から
風向・風速北 4m/s
視程10km以上
少しの雲 雲底高度 3350m
全天の8割程度の雲 雲底高度 4570m
23日0時 MDT から
風向・風速南 4m/s
視程10km以上
少しの雲 雲底高度 4570m
KSLC 221740Z 2218/2324 29005KT P6SM SCT110 BKN150
FM222200 33010G18KT P6SM VCSH BKN100 BKN150
FM230100 01008KT P6SM FEW110 BKN150
FM230600 18007KT P6SM FEW150